Havana, Minnesota
Current Conditions -  °F | °C
As of 11:35 AM on Monday 24 Nov 2014 (Local Time) from KOWA Reporting Station
Overcast Overcast  
Wind Chill:   Ceiling: 1400
Heat Index: 19°   Visibility: 10mi
Dew Point: 16°   Wind: 20mph
Humidity: 86%   Direction: 290°WNW
Pressure: 29.47"   Gusts: 25mph
Location:  44.0575°N, 93.2082°W
Report Text: KOWA 241735Z AUTO 29017G22KT 10SM OVC014 M07/M09 A2947 RMK AO2
Loading
Personal Weather Stations






























Interactive Weather Map New forecast layout! Learn more

10-Day Weather Forecast

Advertisements
Track Severe Weather on mobile